This is the latest recevied weather packets stored in our database for station/object WA9AFM-10. If no packets are shown the sender has not sent any weather packets the latest 10 day(s).
| Time | Temp. | Humidity | Pressure | Rain* | Wind** | Luminosity | Snow |
|---|---|---|---|---|---|---|---|
| 1788035589 | 103° F | 29% | 756.1 mmHg | 0 in | - | - | - |
| 1788031990 | 103° F | 30% | 756.7 mmHg | 0 in | - | - | - |
| 1788030191 | 101° F | 35% | 756.8 mmHg | 0 in | - | - | - |
| 1788028390 | 100° F | 36% | 757.3 mmHg | 0 in | - | - | - |
| 1788026590 | 101° F | 36% | 757.6 mmHg | 0 in | - | - | - |
| 1788019390 | 92° F | 48% | 758.3 mmHg | 0 in | - | - | - |
| 1788015790 | 87° F | 56% | 758.5 mmHg | 0 in | - | - | - |
| 1788012189 | 81° F | 64% | 758.7 mmHg | 0 in | - | - | - |
| 1788010389 | 77° F | 68% | 758.8 mmHg | 0 in | - | - | - |
| 1788008590 | 75° F | 69% | 758.7 mmHg | 0 in | - | - | - |
| 1788004988 | 74° F | 68% | 758.4 mmHg | 0 in | - | - | - |
| 1787999601 | 75° F | 60% | 758.3 mmHg | 0 in | - | - | - |
| 1787997788 | 76° F | 57% | 758.2 mmHg | 0 in | - | - | - |
| 1787995990 | 78° F | 53% | 758.1 mmHg | 0 in | - | - | - |
| 1787994189 | 79° F | 50% | 758.1 mmHg | 0 in | - | - | - |
| 1787992390 | 80° F | 47% | 758.1 mmHg | 0 in | - | - | - |
| 1787990589 | 80° F | 45% | 758.2 mmHg | 0 in | - | - | - |
| 1787988790 | 81° F | 41% | 758.2 mmHg | 0 in | - | - | - |
| 1787986989 | 82° F | 41% | 758.2 mmHg | 0 in | - | - | - |
| 1787985190 | 82° F | 39% | 758.3 mmHg | 0 in | - | - | - |
| 1787983390 | 82° F | 39% | 758.4 mmHg | 0 in | - | - | - |
| 1787981589 | 82° F | 40% | 758.3 mmHg | 0 in | - | - | - |
| 1787977991 | 83° F | 39% | 758.4 mmHg | 0 in | - | - | - |
| 1787974390 | 86° F | 37% | 758.3 mmHg | 0 in | - | - | - |
| 1787972591 | 86° F | 38% | 758.1 mmHg | 0 in | - | - | - |
* Rain latest hour (hover to see other rain measurements)
** Current wind speed in m/s (hover to see current wind gust speed)